sensor_id;sensor_type;location;lat;lon;timestamp;pressure;altitude;pressure_sealevel;temperature;humidity
39223;BME280;24936;46.328;11.026;2023-03-22T00:00:42;94294.78;;;6.46;76.23
39223;BME280;24936;46.328;11.026;2023-03-22T00:03:08;94293.00;;;6.46;76.36
39223;BME280;24936;46.328;11.026;2023-03-22T00:05:34;94291.47;;;6.43;76.17
39223;BME280;24936;46.328;11.026;2023-03-22T00:08:02;94289.66;;;6.55;75.74
39223;BME280;24936;46.328;11.026;2023-03-22T00:10:31;94284.78;;;6.73;74.89
39223;BME280;24936;46.328;11.026;2023-03-22T00:12:57;94282.88;;;6.87;74.07
39223;BME280;24936;46.328;11.026;2023-03-22T00:15:22;94283.50;;;6.68;75.15
39223;BME280;24936;46.328;11.026;2023-03-22T00:17:47;94288.69;;;6.56;75.81
39223;BME280;24936;46.328;11.026;2023-03-22T00:20:14;94289.28;;;6.49;76.26
39223;BME280;24936;46.328;11.026;2023-03-22T00:22:41;94291.69;;;6.40;76.87
39223;BME280;24936;46.328;11.026;2023-03-22T00:25:08;94293.22;;;6.32;77.50
39223;BME280;24936;46.328;11.026;2023-03-22T00:27:33;94294.53;;;6.26;77.65
39223;BME280;24936;46.328;11.026;2023-03-22T00:29:58;94290.59;;;6.09;78.40
39223;BME280;24936;46.328;11.026;2023-03-22T00:32:24;94287.81;;;5.99;78.64
39223;BME280;24936;46.328;11.026;2023-03-22T00:34:49;94292.84;;;6.14;77.98
39223;BME280;24936;46.328;11.026;2023-03-22T00:37:15;94289.53;;;6.23;77.48
39223;BME280;24936;46.328;11.026;2023-03-22T00:39:40;94290.97;;;6.16;77.99
39223;BME280;24936;46.328;11.026;2023-03-22T00:42:11;94281.53;;;6.02;78.94
39223;BME280;24936;46.328;11.026;2023-03-22T00:44:36;94281.28;;;5.93;79.18
39223;BME280;24936;46.328;11.026;2023-03-22T00:47:02;94277.94;;;5.91;79.83
39223;BME280;24936;46.328;11.026;2023-03-22T00:49:27;94279.16;;;5.99;79.54
39223;BME280;24936;46.328;11.026;2023-03-22T00:51:53;94277.38;;;5.99;79.37
39223;BME280;24936;46.328;11.026;2023-03-22T00:54:18;94269.94;;;6.06;79.12
39223;BME280;24936;46.328;11.026;2023-03-22T00:56:44;94272.19;;;6.10;78.05
39223;BME280;24936;46.328;11.026;2023-03-22T00:59:12;94271.50;;;6.20;77.81
39223;BME280;24936;46.328;11.026;2023-03-22T01:01:38;94261.72;;;6.22;77.89
39223;BME280;24936;46.328;11.026;2023-03-22T01:04:04;94259.59;;;6.16;78.04
39223;BME280;24936;46.328;11.026;2023-03-22T01:06:30;94259.06;;;5.99;78.64
39223;BME280;24936;46.328;11.026;2023-03-22T01:08:56;94253.63;;;5.91;79.53
39223;BME280;24936;46.328;11.026;2023-03-22T01:11:21;94238.44;;;6.07;78.37
39223;BME280;24936;46.328;11.026;2023-03-22T01:13:47;94240.63;;;5.78;79.45
39223;BME280;24936;46.328;11.026;2023-03-22T01:16:13;94238.63;;;5.93;78.99
39223;BME280;24936;46.328;11.026;2023-03-22T01:18:38;94252.34;;;6.08;78.26
39223;BME280;24936;46.328;11.026;2023-03-22T01:21:04;94248.63;;;5.99;78.27
39223;BME280;24936;46.328;11.026;2023-03-22T01:23:30;94242.66;;;5.86;79.02
39223;BME280;24936;46.328;11.026;2023-03-22T01:25:55;94233.88;;;5.87;79.21
39223;BME280;24936;46.328;11.026;2023-03-22T01:28:21;94244.13;;;5.90;78.70
39223;BME280;24936;46.328;11.026;2023-03-22T01:30:46;94246.72;;;5.90;79.11
39223;BME280;24936;46.328;11.026;2023-03-22T01:33:12;94241.47;;;5.78;79.24
39223;BME280;24936;46.328;11.026;2023-03-22T01:35:37;94238.84;;;5.78;79.58
39223;BME280;24936;46.328;11.026;2023-03-22T01:38:03;94237.09;;;5.79;79.62
39223;BME280;24936;46.328;11.026;2023-03-22T01:40:28;94245.53;;;5.94;78.87
39223;BME280;24936;46.328;11.026;2023-03-22T01:42:54;94241.31;;;6.04;78.22
39223;BME280;24936;46.328;11.026;2023-03-22T01:50:37;94247.13;;;6.08;78.31
39223;BME280;24936;46.328;11.026;2023-03-22T01:53:07;94243.22;;;6.14;78.13
39223;BME280;24936;46.328;11.026;2023-03-22T01:55:32;94245.81;;;6.36;76.50
39223;BME280;24936;46.328;11.026;2023-03-22T01:57:58;94251.31;;;6.33;76.72
39223;BME280;24936;46.328;11.026;2023-03-22T02:00:25;94257.34;;;6.22;77.35
39223;BME280;24936;46.328;11.026;2023-03-22T02:02:50;94247.13;;;6.08;78.08
39223;BME280;24936;46.328;11.026;2023-03-22T02:05:16;94250.09;;;6.03;78.36
39223;BME280;24936;46.328;11.026;2023-03-22T02:07:43;94248.84;;;5.96;78.35
39223;BME280;24936;46.328;11.026;2023-03-22T02:10:19;94255.97;;;5.94;78.71
39223;BME280;24936;46.328;11.026;2023-03-22T02:15:21;94254.06;;;5.85;78.77
39223;BME280;24936;46.328;11.026;2023-03-22T02:18:02;94247.91;;;5.86;78.72
39223;BME280;24936;46.328;11.026;2023-03-22T02:26:21;94257.25;;;5.77;78.72
39223;BME280;24936;46.328;11.026;2023-03-22T02:31:13;94253.56;;;5.68;78.98
39223;BME280;24936;46.328;11.026;2023-03-22T02:38:50;94256.59;;;5.50;79.58
39223;BME280;24936;46.328;11.026;2023-03-22T02:46:34;94268.19;;;5.35;80.79
39223;BME280;24936;46.328;11.026;2023-03-22T02:49:18;94267.47;;;5.33;80.77
39223;BME280;24936;46.328;11.026;2023-03-22T02:51:51;94264.88;;;5.44;80.38
39223;BME280;24936;46.328;11.026;2023-03-22T02:54:21;94262.06;;;5.47;80.17
39223;BME280;24936;46.328;11.026;2023-03-22T02:57:01;94269.13;;;5.34;80.81
39223;BME280;24936;46.328;11.026;2023-03-22T02:59:28;94267.00;;;5.39;80.85
39223;BME280;24936;46.328;11.026;2023-03-22T03:01:56;94262.78;;;5.49;80.53
39223;BME280;24936;46.328;11.026;2023-03-22T03:04:30;94259.97;;;5.64;79.45
39223;BME280;24936;46.328;11.026;2023-03-22T03:06:58;94264.41;;;5.50;80.25
39223;BME280;24936;46.328;11.026;2023-03-22T03:09:25;94269.38;;;5.42;81.32
39223;BME280;24936;46.328;11.026;2023-03-22T03:11:52;94260.44;;;5.33;81.49
39223;BME280;24936;46.328;11.026;2023-03-22T03:14:19;94268.19;;;5.35;82.30
39223;BME280;24936;46.328;11.026;2023-03-22T03:16:49;94264.41;;;5.50;81.09
39223;BME280;24936;46.328;11.026;2023-03-22T03:19:24;94269.56;;;5.63;80.40
39223;BME280;24936;46.328;11.026;2023-03-22T03:24:42;94263.78;;;5.82;79.30
39223;BME280;24936;46.328;11.026;2023-03-22T03:29:40;94260.25;;;5.95;79.64
39223;BME280;24936;46.328;11.026;2023-03-22T03:34:38;94257.63;;;5.84;79.38
39223;BME280;24936;46.328;11.026;2023-03-22T03:37:10;94267.63;;;5.90;78.85
39223;BME280;24936;46.328;11.026;2023-03-22T03:39:42;94259.38;;;5.72;80.20
39223;BME280;24936;46.328;11.026;2023-03-22T03:42:10;94271.16;;;5.77;79.87
39223;BME280;24936;46.328;11.026;2023-03-22T03:44:37;94275.66;;;5.75;79.90
39223;BME280;24936;46.328;11.026;2023-03-22T03:47:04;94281.97;;;5.84;79.52
39223;BME280;24936;46.328;11.026;2023-03-22T03:52:33;94270.16;;;5.67;80.36
39223;BME280;24936;46.328;11.026;2023-03-22T03:54:58;94264.22;;;5.65;80.16
39223;BME280;24936;46.328;11.026;2023-03-22T03:57:24;94267.09;;;5.62;80.16
39223;BME280;24936;46.328;11.026;2023-03-22T03:59:49;94265.88;;;5.66;80.43
39223;BME280;24936;46.328;11.026;2023-03-22T04:02:14;94278.38;;;5.38;81.65
39223;BME280;24936;46.328;11.026;2023-03-22T04:04:40;94273.84;;;5.29;81.91
39223;BME280;24936;46.328;11.026;2023-03-22T04:07:06;94268.38;;;5.20;81.96
39223;BME280;24936;46.328;11.026;2023-03-22T04:09:33;94280.22;;;5.25;81.86
39223;BME280;24936;46.328;11.026;2023-03-22T04:11:58;94269.63;;;5.50;80.67
39223;BME280;24936;46.328;11.026;2023-03-22T04:14:24;94273.47;;;5.58;80.01
39223;BME280;24936;46.328;11.026;2023-03-22T04:16:50;94282.00;;;5.24;80.65
39223;BME280;24936;46.328;11.026;2023-03-22T04:19:15;94278.63;;;4.86;81.91
39223;BME280;24936;46.328;11.026;2023-03-22T04:21:41;94285.84;;;4.70;82.74
39223;BME280;24936;46.328;11.026;2023-03-22T04:24:10;94283.25;;;4.70;83.16
39223;BME280;24936;46.328;11.026;2023-03-22T04:26:36;94279.88;;;4.81;82.71
39223;BME280;24936;46.328;11.026;2023-03-22T04:29:01;94281.75;;;4.92;81.88
39223;BME280;24936;46.328;11.026;2023-03-22T04:31:30;94284.50;;;4.77;82.08
39223;BME280;24936;46.328;11.026;2023-03-22T04:33:56;94281.75;;;4.28;83.19
39223;BME280;24936;46.328;11.026;2023-03-22T04:36:30;94284.47;;;4.14;84.25
39223;BME280;24936;46.328;11.026;2023-03-22T04:39:01;94282.00;;;4.12;84.90
39223;BME280;24936;46.328;11.026;2023-03-22T04:41:29;94282.81;;;4.26;84.39
39223;BME280;24936;46.328;11.026;2023-03-22T04:43:55;94272.50;;;4.24;84.06
39223;BME280;24936;46.328;11.026;2023-03-22T04:46:21;94275.53;;;4.18;84.34
39223;BME280;24936;46.328;11.026;2023-03-22T04:48:47;94281.16;;;4.12;84.57
39223;BME280;24936;46.328;11.026;2023-03-22T04:51:12;94266.47;;;3.98;84.86
39223;BME280;24936;46.328;11.026;2023-03-22T04:53:38;94273.44;;;4.10;84.56
39223;BME280;24936;46.328;11.026;2023-03-22T04:56:17;94271.13;;;4.19;84.31
39223;BME280;24936;46.328;11.026;2023-03-22T04:58:43;94260.84;;;3.91;84.49
39223;BME280;24936;46.328;11.026;2023-03-22T05:01:15;94259.91;;;3.92;85.03
39223;BME280;24936;46.328;11.026;2023-03-22T05:03:46;94265.22;;;4.04;84.85
39223;BME280;24936;46.328;11.026;2023-03-22T05:06:12;94264.09;;;4.08;84.50
39223;BME280;24936;46.328;11.026;2023-03-22T05:08:37;94263.25;;;3.94;84.57
39223;BME280;24936;46.328;11.026;2023-03-22T05:11:04;94263.16;;;4.09;84.06
39223;BME280;24936;46.328;11.026;2023-03-22T05:13:30;94254.41;;;4.10;84.02
39223;BME280;24936;46.328;11.026;2023-03-22T05:16:00;94265.53;;;3.99;84.26
39223;BME280;24936;46.328;11.026;2023-03-22T05:18:29;94256.19;;;3.96;84.68
39223;BME280;24936;46.328;11.026;2023-03-22T05:20:58;94261.69;;;3.79;85.31
39223;BME280;24936;46.328;11.026;2023-03-22T05:23:23;94258.75;;;3.71;85.67
39223;BME280;24936;46.328;11.026;2023-03-22T05:25:50;94265.13;;;3.66;85.99
39223;BME280;24936;46.328;11.026;2023-03-22T05:28:16;94263.72;;;3.48;86.53
39223;BME280;24936;46.328;11.026;2023-03-22T05:30:43;94269.72;;;3.22;87.02
39223;BME280;24936;46.328;11.026;2023-03-22T05:33:10;94276.38;;;3.27;87.41
39223;BME280;24936;46.328;11.026;2023-03-22T05:35:39;94275.06;;;3.47;87.04
39223;BME280;24936;46.328;11.026;2023-03-22T05:38:05;94282.88;;;3.47;86.65
39223;BME280;24936;46.328;11.026;2023-03-22T05:40:31;94283.03;;;3.71;86.22
39223;BME280;24936;46.328;11.026;2023-03-22T05:42:56;94281.47;;;3.81;85.36
39223;BME280;24936;46.328;11.026;2023-03-22T05:45:22;94289.28;;;3.81;85.29
39223;BME280;24936;46.328;11.026;2023-03-22T05:47:48;94285.50;;;3.47;86.31
39223;BME280;24936;46.328;11.026;2023-03-22T05:50:15;94288.69;;;3.38;87.08
39223;BME280;24936;46.328;11.026;2023-03-22T05:52:43;94291.94;;;3.41;87.26
39223;BME280;24936;46.328;11.026;2023-03-22T05:55:09;94296.75;;;3.60;87.08
39223;BME280;24936;46.328;11.026;2023-03-22T05:57:36;94299.16;;;3.63;86.99
39223;BME280;24936;46.328;11.026;2023-03-22T06:00:02;94298.88;;;3.81;86.45
39223;BME280;24936;46.328;11.026;2023-03-22T06:02:29;94298.13;;;3.79;86.54
39223;BME280;24936;46.328;11.026;2023-03-22T06:04:55;94302.50;;;3.78;86.96
39223;BME280;24936;46.328;11.026;2023-03-22T06:07:20;94301.16;;;3.86;87.00
39223;BME280;24936;46.328;11.026;2023-03-22T06:09:45;94298.25;;;3.90;86.83
39223;BME280;24936;46.328;11.026;2023-03-22T06:12:14;94301.38;;;3.95;86.78
39223;BME280;24936;46.328;11.026;2023-03-22T06:14:55;94305.97;;;4.05;86.64
39223;BME280;24936;46.328;11.026;2023-03-22T06:17:55;94311.06;;;4.19;86.17
39223;BME280;24936;46.328;11.026;2023-03-22T06:20:30;94310.34;;;4.17;86.40
39223;BME280;24936;46.328;11.026;2023-03-22T06:22:55;94321.06;;;4.25;86.33
39223;BME280;24936;46.328;11.026;2023-03-22T06:25:21;94310.44;;;4.41;85.08
39223;BME280;24936;46.328;11.026;2023-03-22T06:27:47;94312.63;;;4.35;85.13
39223;BME280;24936;46.328;11.026;2023-03-22T06:30:12;94315.31;;;4.46;85.17
39223;BME280;24936;46.328;11.026;2023-03-22T06:32:38;94315.72;;;4.66;83.94
39223;BME280;24936;46.328;11.026;2023-03-22T06:35:03;94308.56;;;4.81;83.89
39223;BME280;24936;46.328;11.026;2023-03-22T06:37:28;94319.91;;;4.93;83.24
39223;BME280;24936;46.328;11.026;2023-03-22T06:39:54;94309.47;;;5.17;82.54
39223;BME280;24936;46.328;11.026;2023-03-22T06:42:19;94306.56;;;5.22;82.41
39223;BME280;24936;46.328;11.026;2023-03-22T06:44:45;94306.41;;;5.36;81.60
39223;BME280;24936;46.328;11.026;2023-03-22T06:47:11;94314.41;;;5.57;80.43
39223;BME280;24936;46.328;11.026;2023-03-22T06:49:36;94314.69;;;5.65;80.71
39223;BME280;24936;46.328;11.026;2023-03-22T06:52:02;94310.56;;;5.74;81.24
39223;BME280;24936;46.328;11.026;2023-03-22T06:54:27;94313.19;;;5.86;80.83
39223;BME280;24936;46.328;11.026;2023-03-22T06:56:53;94308.47;;;5.91;80.19
39223;BME280;24936;46.328;11.026;2023-03-22T06:59:21;94303.44;;;6.12;79.13
39223;BME280;24936;46.328;11.026;2023-03-22T07:01:47;94308.31;;;6.17;79.34
39223;BME280;24936;46.328;11.026;2023-03-22T07:04:12;94316.66;;;6.33;78.16
39223;BME280;24936;46.328;11.026;2023-03-22T07:06:38;94302.13;;;6.29;78.37
39223;BME280;24936;46.328;11.026;2023-03-22T07:09:03;94312.00;;;6.25;79.17
39223;BME280;24936;46.328;11.026;2023-03-22T07:11:29;94310.22;;;6.37;78.69
39223;BME280;24936;46.328;11.026;2023-03-22T07:13:54;94309.75;;;6.43;78.43
39223;BME280;24936;46.328;11.026;2023-03-22T07:16:19;94315.56;;;6.47;77.83
39223;BME280;24936;46.328;11.026;2023-03-22T07:18:45;94306.91;;;6.58;76.94
39223;BME280;24936;46.328;11.026;2023-03-22T07:21:10;94306.66;;;6.72;75.88
39223;BME280;24936;46.328;11.026;2023-03-22T07:23:36;94308.19;;;6.86;76.20
39223;BME280;24936;46.328;11.026;2023-03-22T07:26:01;94317.81;;;6.97;75.73
39223;BME280;24936;46.328;11.026;2023-03-22T07:28:27;94311.59;;;7.10;75.09
39223;BME280;24936;46.328;11.026;2023-03-22T07:31:01;94305.94;;;7.26;74.48
39223;BME280;24936;46.328;11.026;2023-03-22T07:33:30;94304.13;;;7.38;73.67
39223;BME280;24936;46.328;11.026;2023-03-22T07:35:58;94307.94;;;7.45;72.67
39223;BME280;24936;46.328;11.026;2023-03-22T07:38:23;94312.28;;;7.56;73.14
39223;BME280;24936;46.328;11.026;2023-03-22T07:40:52;94310.25;;;7.59;73.95
39223;BME280;24936;46.328;11.026;2023-03-22T07:43:20;94314.84;;;7.67;72.47
39223;BME280;24936;46.328;11.026;2023-03-22T07:45:50;94314.19;;;7.86;72.54
39223;BME280;24936;46.328;11.026;2023-03-22T07:48:16;94308.63;;;8.01;71.77
39223;BME280;24936;46.328;11.026;2023-03-22T07:50:41;94304.03;;;8.14;70.95
39223;BME280;24936;46.328;11.026;2023-03-22T07:53:07;94308.09;;;8.28;70.10
39223;BME280;24936;46.328;11.026;2023-03-22T07:55:32;94312.19;;;8.42;69.92
39223;BME280;24936;46.328;11.026;2023-03-22T07:57:58;94307.38;;;8.47;70.93
39223;BME280;24936;46.328;11.026;2023-03-22T08:00:23;94302.66;;;8.62;70.22
39223;BME280;24936;46.328;11.026;2023-03-22T08:02:49;94315.53;;;8.75;69.29
39223;BME280;24936;46.328;11.026;2023-03-22T08:05:14;94310.88;;;8.88;68.28
39223;BME280;24936;46.328;11.026;2023-03-22T08:07:40;94311.00;;;9.38;68.04
39223;BME280;24936;46.328;11.026;2023-03-22T08:10:06;94305.22;;;10.03;66.00
39223;BME280;24936;46.328;11.026;2023-03-22T08:12:32;94295.97;;;10.56;63.99
39223;BME280;24936;46.328;11.026;2023-03-22T08:14:57;94301.00;;;11.05;63.16
39223;BME280;24936;46.328;11.026;2023-03-22T08:17:23;94295.50;;;11.26;61.30
39223;BME280;24936;46.328;11.026;2023-03-22T08:19:50;94299.25;;;10.68;63.80
39223;BME280;24936;46.328;11.026;2023-03-22T08:24:57;94301.00;;;10.30;64.22
39223;BME280;24936;46.328;11.026;2023-03-22T08:27:22;94302.19;;;10.55;64.23
39223;BME280;24936;46.328;11.026;2023-03-22T08:29:47;94295.84;;;10.85;64.63
39223;BME280;24936;46.328;11.026;2023-03-22T08:32:14;94294.00;;;10.96;62.68
39223;BME280;24936;46.328;11.026;2023-03-22T08:34:40;94300.41;;;11.39;62.28
39223;BME280;24936;46.328;11.026;2023-03-22T08:37:08;94305.47;;;11.51;60.11
39223;BME280;24936;46.328;11.026;2023-03-22T08:39:35;94297.72;;;12.03;58.93
39223;BME280;24936;46.328;11.026;2023-03-22T08:42:01;94294.69;;;12.43;58.96
39223;BME280;24936;46.328;11.026;2023-03-22T08:44:26;94295.16;;;12.38;57.21
39223;BME280;24936;46.328;11.026;2023-03-22T08:46:52;94295.28;;;12.89;55.92
39223;BME280;24936;46.328;11.026;2023-03-22T08:49:17;94290.63;;;13.77;54.64
39223;BME280;24936;46.328;11.026;2023-03-22T08:51:43;94297.06;;;14.49;49.35
39223;BME280;24936;46.328;11.026;2023-03-22T08:54:08;94280.00;;;15.79;48.20
39223;BME280;24936;46.328;11.026;2023-03-22T08:56:34;94277.69;;;16.23;47.16
39223;BME280;24936;46.328;11.026;2023-03-22T08:59:08;94281.53;;;16.20;45.99
39223;BME280;24936;46.328;11.026;2023-03-22T09:01:34;94271.13;;;15.64;46.75
39223;BME280;24936;46.328;11.026;2023-03-22T09:04:00;94276.28;;;16.12;47.33
39223;BME280;24936;46.328;11.026;2023-03-22T09:06:25;94268.09;;;17.05;43.76
39223;BME280;24936;46.328;11.026;2023-03-22T09:08:51;94265.56;;;16.88;42.49
39223;BME280;24936;46.328;11.026;2023-03-22T09:11:17;94273.09;;;17.30;45.21
39223;BME280;24936;46.328;11.026;2023-03-22T09:13:43;94272.81;;;17.39;44.46
39223;BME280;24936;46.328;11.026;2023-03-22T09:16:08;94262.63;;;18.23;43.60
39223;BME280;24936;46.328;11.026;2023-03-22T09:18:39;94261.19;;;17.62;39.87
39223;BME280;24936;46.328;11.026;2023-03-22T09:21:08;94261.13;;;18.14;40.74
39223;BME280;24936;46.328;11.026;2023-03-22T09:23:34;94258.03;;;18.95;38.95
39223;BME280;24936;46.328;11.026;2023-03-22T09:26:05;94253.38;;;19.60;38.63
39223;BME280;24936;46.328;11.026;2023-03-22T09:28:31;94253.25;;;19.26;38.57
39223;BME280;24936;46.328;11.026;2023-03-22T09:31:00;94256.31;;;18.02;39.05
39223;BME280;24936;46.328;11.026;2023-03-22T09:33:26;94244.53;;;19.04;38.34
39223;BME280;24936;46.328;11.026;2023-03-22T09:35:52;94243.13;;;19.08;39.88
39223;BME280;24936;46.328;11.026;2023-03-22T09:38:17;94244.03;;;19.29;37.03
39223;BME280;24936;46.328;11.026;2023-03-22T09:41:04;94234.38;;;20.57;36.72
39223;BME280;24936;46.328;11.026;2023-03-22T09:43:29;94236.03;;;20.31;36.48
39223;BME280;24936;46.328;11.026;2023-03-22T09:45:57;94237.31;;;21.34;34.60
39223;BME280;24936;46.328;11.026;2023-03-22T09:48:38;94226.66;;;21.66;32.49
39223;BME280;24936;46.328;11.026;2023-03-22T09:51:06;94220.88;;;21.31;33.34
39223;BME280;24936;46.328;11.026;2023-03-22T09:53:37;94220.44;;;21.27;33.97
39223;BME280;24936;46.328;11.026;2023-03-22T09:56:13;94215.31;;;21.26;32.35
39223;BME280;24936;46.328;11.026;2023-03-22T09:58:55;94215.91;;;20.22;36.93
39223;BME280;24936;46.328;11.026;2023-03-22T10:06:35;94200.41;;;19.56;35.86
39223;BME280;24936;46.328;11.026;2023-03-22T10:09:13;94203.97;;;20.38;37.12
39223;BME280;24936;46.328;11.026;2023-03-22T10:14:29;94193.75;;;21.66;34.27
39223;BME280;24936;46.328;11.026;2023-03-22T10:17:01;94194.78;;;21.58;32.94
39223;BME280;24936;46.328;11.026;2023-03-22T10:19:34;94190.03;;;21.15;34.64
39223;BME280;24936;46.328;11.026;2023-03-22T10:22:01;94193.47;;;20.63;34.84
39223;BME280;24936;46.328;11.026;2023-03-22T10:24:29;94194.31;;;20.50;34.83
39223;BME280;24936;46.328;11.026;2023-03-22T10:26:56;94191.03;;;22.55;33.67
39223;BME280;24936;46.328;11.026;2023-03-22T10:31:56;94190.03;;;21.15;33.80
39223;BME280;24936;46.328;11.026;2023-03-22T10:34:33;94186.97;;;22.21;34.16
39223;BME280;24936;46.328;11.026;2023-03-22T10:36:59;94185.81;;;20.93;33.40
39223;BME280;24936;46.328;11.026;2023-03-22T10:39:41;94176.72;;;22.36;32.83
39223;BME280;24936;46.328;11.026;2023-03-22T10:42:15;94175.97;;;22.54;32.87
39223;BME280;24936;46.328;11.026;2023-03-22T10:44:52;94181.09;;;21.80;33.55
39223;BME280;24936;46.328;11.026;2023-03-22T10:47:21;94176.97;;;22.35;32.05
39223;BME280;24936;46.328;11.026;2023-03-22T10:49:51;94181.72;;;22.33;32.27
39223;BME280;24936;46.328;11.026;2023-03-22T10:52:40;94181.31;;;21.78;32.15
39223;BME280;24936;46.328;11.026;2023-03-22T10:55:11;94174.13;;;21.33;34.48
39223;BME280;24936;46.328;11.026;2023-03-22T10:57:37;94166.31;;;22.03;33.61
39223;BME280;24936;46.328;11.026;2023-03-22T11:00:05;94159.16;;;21.19;32.86
39223;BME280;24936;46.328;11.026;2023-03-22T11:02:42;94161.53;;;20.95;33.94
39223;BME280;24936;46.328;11.026;2023-03-22T11:05:16;94159.16;;;21.64;33.67
39223;BME280;24936;46.328;11.026;2023-03-22T11:07:43;94159.47;;;22.07;31.93
39223;BME280;24936;46.328;11.026;2023-03-22T11:12:38;94142.44;;;21.94;33.12
39223;BME280;24936;46.328;11.026;2023-03-22T11:15:04;94140.00;;;22.99;32.45
39223;BME280;24936;46.328;11.026;2023-03-22T11:17:30;94135.47;;;22.44;31.69
39223;BME280;24936;46.328;11.026;2023-03-22T11:19:57;94140.00;;;21.93;33.12
39223;BME280;24936;46.328;11.026;2023-03-22T11:22:25;94137.53;;;21.59;33.26
39223;BME280;24936;46.328;11.026;2023-03-22T11:24:54;94137.16;;;22.57;32.82
39223;BME280;24936;46.328;11.026;2023-03-22T11:27:24;94139.16;;;21.28;32.39
39223;BME280;24936;46.328;11.026;2023-03-22T11:29:53;94135.06;;;21.26;33.28
39223;BME280;24936;46.328;11.026;2023-03-22T11:34:46;94126.19;;;22.40;31.31
39223;BME280;24936;46.328;11.026;2023-03-22T11:37:15;94122.97;;;22.75;32.56
39223;BME280;24936;46.328;11.026;2023-03-22T11:39:45;94124.88;;;21.80;32.37
39223;BME280;24936;46.328;11.026;2023-03-22T11:42:16;94112.91;;;22.70;31.06
39223;BME280;24936;46.328;11.026;2023-03-22T11:44:42;94118.72;;;22.67;31.45
39223;BME280;24936;46.328;11.026;2023-03-22T11:47:11;94108.28;;;22.15;33.11
39223;BME280;24936;46.328;11.026;2023-03-22T11:52:10;94104.56;;;21.91;31.84
39223;BME280;24936;46.328;11.026;2023-03-22T11:54:39;94095.41;;;23.17;30.58
39223;BME280;24936;46.328;11.026;2023-03-22T11:57:08;94087.81;;;22.46;30.28
39223;BME280;24936;46.328;11.026;2023-03-22T11:59:46;94086.38;;;22.81;29.93
39223;BME280;24936;46.328;11.026;2023-03-22T12:02:23;94093.75;;;22.67;31.46
39223;BME280;24936;46.328;11.026;2023-03-22T12:04:52;94080.38;;;22.48;31.62
39223;BME280;24936;46.328;11.026;2023-03-22T12:07:21;94078.31;;;22.25;29.19
39223;BME280;24936;46.328;11.026;2023-03-22T12:12:21;94078.66;;;22.10;30.90
39223;BME280;24936;46.328;11.026;2023-03-22T12:14:50;94077.59;;;21.67;30.43
39223;BME280;24936;46.328;11.026;2023-03-22T12:22:17;94068.59;;;21.54;30.68
39223;BME280;24936;46.328;11.026;2023-03-22T12:24:43;94063.47;;;22.22;30.33
39223;BME280;24936;46.328;11.026;2023-03-22T12:27:14;94061.88;;;21.13;32.05
39223;BME280;24936;46.328;11.026;2023-03-22T12:29:43;94060.47;;;21.36;31.98
39223;BME280;24936;46.328;11.026;2023-03-22T12:32:44;94061.56;;;21.28;31.33
39223;BME280;24936;46.328;11.026;2023-03-22T12:35:03;94049.16;;;21.66;31.78
39223;BME280;24936;46.328;11.026;2023-03-22T12:37:33;94040.84;;;22.37;30.80
39223;BME280;24936;46.328;11.026;2023-03-22T12:42:34;94033.34;;;21.32;30.78
39223;BME280;24936;46.328;11.026;2023-03-22T12:45:04;94033.09;;;20.63;32.07
39223;BME280;24936;46.328;11.026;2023-03-22T12:47:37;94030.06;;;20.98;33.01
39223;BME280;24936;46.328;11.026;2023-03-22T12:50:22;94017.72;;;21.29;31.22
39223;BME280;24936;46.328;11.026;2023-03-22T12:52:50;94014.81;;;22.25;29.99
39223;BME280;24936;46.328;11.026;2023-03-22T12:55:34;94014.44;;;21.52;30.74
39223;BME280;24936;46.328;11.026;2023-03-22T12:58:00;94016.50;;;21.25;32.36
39223;BME280;24936;46.328;11.026;2023-03-22T13:05:40;94008.31;;;21.20;32.24
39223;BME280;24936;46.328;11.026;2023-03-22T13:08:05;93999.66;;;21.24;32.00
39223;BME280;24936;46.328;11.026;2023-03-22T13:15:35;93992.16;;;21.65;31.85
39223;BME280;24936;46.328;11.026;2023-03-22T13:18:01;93989.34;;;20.96;33.75
39223;BME280;24936;46.328;11.026;2023-03-22T13:20:27;93987.50;;;20.51;32.40
39223;BME280;24936;46.328;11.026;2023-03-22T13:22:58;93987.38;;;20.39;33.79
39223;BME280;24936;46.328;11.026;2023-03-22T13:25:34;93987.16;;;21.12;32.28
39223;BME280;24936;46.328;11.026;2023-03-22T13:28:01;93982.34;;;21.52;31.51
39223;BME280;24936;46.328;11.026;2023-03-22T13:32:57;93977.97;;;20.69;32.46
39223;BME280;24936;46.328;11.026;2023-03-22T13:35:39;93972.53;;;20.43;32.45
39223;BME280;24936;46.328;11.026;2023-03-22T13:38:08;93972.44;;;20.63;31.82
39223;BME280;24936;46.328;11.026;2023-03-22T13:40:35;93959.34;;;20.48;32.18
39223;BME280;24936;46.328;11.026;2023-03-22T13:43:12;93962.44;;;20.91;32.28
39223;BME280;24936;46.328;11.026;2023-03-22T13:46:00;93964.06;;;20.92;32.77
39223;BME280;24936;46.328;11.026;2023-03-22T13:48:44;93958.31;;;20.95;31.79
39223;BME280;24936;46.328;11.026;2023-03-22T13:59:02;93949.72;;;19.75;33.76
39223;BME280;24936;46.328;11.026;2023-03-22T14:01:33;93947.06;;;19.89;34.34
39223;BME280;24936;46.328;11.026;2023-03-22T14:04:05;93937.41;;;19.74;34.55
39223;BME280;24936;46.328;11.026;2023-03-22T14:06:34;93943.97;;;19.78;35.51
39223;BME280;24936;46.328;11.026;2023-03-22T14:09:08;93932.19;;;20.13;33.57
39223;BME280;24936;46.328;11.026;2023-03-22T14:11:41;93933.28;;;19.85;34.06
39223;BME280;24936;46.328;11.026;2023-03-22T14:14:13;93934.56;;;19.76;33.78
39223;BME280;24936;46.328;11.026;2023-03-22T14:16:41;93926.75;;;19.61;34.56
39223;BME280;24936;46.328;11.026;2023-03-22T14:19:10;93927.13;;;19.84;35.60
39223;BME280;24936;46.328;11.026;2023-03-22T14:21:41;93921.06;;;19.44;34.36
39223;BME280;24936;46.328;11.026;2023-03-22T14:24:07;93927.16;;;19.78;35.81
39223;BME280;24936;46.328;11.026;2023-03-22T14:26:41;93920.22;;;19.56;34.76
39223;BME280;24936;46.328;11.026;2023-03-22T14:29:09;93914.41;;;19.73;36.57